Terminal Aerodrome Forecast
Issued by NWS

Home | Current Version | Previous Version | Text Only | Print | Product List | Glossary On
Versions: 1 2 3 4 5 6 7 8 9 10 11 12 13 14
000
FTUS41 KCAR 072330
TAFFVE
TAF
KFVE 072330Z 0800/0824 19010G18KT P6SM BKN050
     FM080200 19010KT P6SM BKN050
     FM080700 19008KT 5SM -SHRA OVC008
      TEMPO 0810/0813 2SM SHRA BR
     FM081400 29007KT P6SM BKN015
     FM081800 30011KT P6SM SCT050=

USA.gov is the U.S. government's official web portal to all federal, state and local government web resources and services.